Time;durP1;ratioP1;P1;durP2;ratioP2;P2;SDS_P1;SDS_P2;PMS_P1;PMS_P2;Temp;Humidity;BMP_temperature;BMP_pressure;BME280_temperature;BME280_humidity;BME280_pressure;Samples;Min_cycle;Max_cycle;Signal;HPM_P1;HPM_P2
2022/10/30 00:00:12;;;;;;;28.73;15.57;;;16.70;99.90;;;;;;5067059;28;20225;-70
2022/10/30 00:02:38;;;;;;;29.27;14.68;;;16.60;99.90;;;;;;5081396;28;20214;-70
2022/10/30 00:05:04;;;;;;;26.63;14.95;;;16.50;99.90;;;;;;5079098;28;20182;-70
2022/10/30 00:07:29;;;;;;;21.63;15.07;;;16.50;99.90;;;;;;5083466;28;20205;-71
2022/10/30 00:09:55;;;;;;;24.50;14.50;;;16.50;99.90;;;;;;5078846;28;20206;-70
2022/10/30 00:12:20;;;;;;;25.30;14.52;;;16.50;99.90;;;;;;5069120;28;20305;-70
2022/10/30 00:14:46;;;;;;;24.00;14.57;;;16.50;99.90;;;;;;5082696;28;20218;-70
2022/10/30 00:17:11;;;;;;;26.67;16.10;;;16.50;99.90;;;;;;5079777;28;20183;-69
2022/10/30 00:19:37;;;;;;;23.52;14.90;;;16.40;99.90;;;;;;5081843;28;20479;-71
2022/10/30 00:22:03;;;;;;;25.90;15.10;;;16.40;99.90;;;;;;5080197;28;20225;-72
2022/10/30 00:24:29;;;;;;;24.23;14.73;;;16.40;99.90;;;;;;5086405;28;20202;-70
2022/10/30 00:26:54;;;;;;;26.77;15.73;;;16.40;99.90;;;;;;5083316;28;20278;-69
2022/10/30 00:29:23;;;;;;;20.13;14.82;;;16.40;99.90;;;;;;5061687;28;20625;-70
2022/10/30 00:31:49;;;;;;;23.50;15.55;;;16.40;99.90;;;;;;5083668;28;20201;-71
2022/10/30 00:34:15;;;;;;;26.55;14.70;;;16.30;99.90;;;;;;5080553;28;20203;-71
2022/10/30 00:36:40;;;;;;;21.88;14.90;;;16.30;99.90;;;;;;5083629;28;20213;-71
2022/10/30 00:39:06;;;;;;;26.35;16.02;;;16.30;99.90;;;;;;5078525;28;20225;-71
2022/10/30 00:41:32;;;;;;;26.30;15.40;;;16.30;99.90;;;;;;5081524;28;20727;-72
2022/10/30 00:43:57;;;;;;;24.80;15.85;;;16.20;99.90;;;;;;5079452;28;20186;-71
2022/10/30 00:46:31;;;;;;;28.20;16.02;;;16.20;99.90;;;;;;5079603;28;20214;-70
2022/10/30 00:49:04;;;;;;;24.30;15.23;;;16.20;99.90;;;;;;5080203;28;20229;-72
2022/10/30 00:51:32;;;;;;;23.45;14.90;;;16.20;99.90;;;;;;5081757;28;20222;-71
2022/10/30 00:53:59;;;;;;;22.25;15.68;;;16.20;99.90;;;;;;5062388;28;20823;-70
2022/10/30 00:56:25;;;;;;;28.58;16.50;;;16.10;99.90;;;;;;5078277;28;20263;-70
2022/10/30 00:59:01;;;;;;;23.23;15.48;;;16.10;99.90;;;;;;5080880;28;20305;-71
2022/10/30 01:01:31;;;;;;;28.80;17.10;;;16.10;99.90;;;;;;5078962;28;20226;-71
2022/10/30 01:04:00;;;;;;;26.23;15.85;;;16.10;99.90;;;;;;5078142;28;20213;-70
2022/10/30 01:06:28;;;;;;;26.55;15.38;;;16.00;99.90;;;;;;5062608;28;20728;-71
2022/10/30 01:08:54;;;;;;;27.20;16.52;;;15.90;99.90;;;;;;5079320;28;20219;-70
2022/10/30 01:11:20;;;;;;;32.60;17.05;;;15.90;99.90;;;;;;5081321;28;20241;-71
2022/10/30 01:13:48;;;;;;;22.40;15.23;;;15.90;99.90;;;;;;5078736;28;20629;-71
2022/10/30 01:16:23;;;;;;;28.45;16.00;;;15.80;99.90;;;;;;5078794;28;20226;-71
2022/10/30 01:19:07;;;;;;;26.02;16.40;;;15.80;99.90;;;;;;5079180;28;20244;-71
2022/10/30 01:21:49;;;;;;;26.65;16.50;;;15.80;99.90;;;;;;5080018;28;20203;-71
2022/10/30 01:24:39;;;;;;;27.38;16.73;;;15.70;99.90;;;;;;5078684;28;20301;-71
2022/10/30 01:27:46;;;;;;;27.92;16.77;;;15.70;99.90;;;;;;5078536;28;20211;-71
2022/10/30 01:30:40;;;;;;;27.38;16.63;;;15.70;99.90;;;;;;5077275;28;20237;-71
2022/10/30 01:33:37;;;;;;;28.27;15.93;;;15.70;99.90;;;;;;5078687;28;20241;-72
2022/10/30 01:36:42;;;;;;;26.10;16.98;;;15.70;99.90;;;;;;5080356;28;20206;-72
2022/10/30 01:39:14;;;;;;;31.05;17.27;;;15.80;99.90;;;;;;5077536;28;20719;-71
2022/10/30 01:41:40;;;;;;;25.98;16.98;;;15.70;99.90;;;;;;5081430;28;20553;-72
2022/10/30 01:44:17;;;;;;;26.35;17.45;;;15.70;99.90;;;;;;5080159;28;20175;-70
2022/10/30 01:46:52;;;;;;;29.33;17.85;;;15.70;99.90;;;;;;5078530;28;20268;-72
2022/10/30 01:50:05;;;;;;;30.20;17.75;;;15.70;99.90;;;;;;5074342;28;20234;-70
2022/10/30 01:53:01;;;;;;;27.63;17.65;;;15.70;99.90;;;;;;5063011;28;20235;-72
2022/10/30 01:55:53;;;;;;;29.05;16.80;;;15.70;99.90;;;;;;5078996;28;20680;-72
2022/10/30 01:58:50;;;;;;;35.00;17.20;;;15.70;99.90;;;;;;5078672;28;20211;-72
2022/10/30 02:01:17;;;;;;;26.77;17.05;;;15.60;99.90;;;;;;5047716;28;20242;-72
2022/10/30 02:03:44;;;;;;;26.75;16.95;;;15.60;99.90;;;;;;5078817;28;20211;-72
2022/10/30 02:06:10;;;;;;;25.58;17.35;;;15.70;99.90;;;;;;5078807;28;20570;-72
2022/10/30 02:08:36;;;;;;;31.23;17.35;;;15.70;99.90;;;;;;5065786;28;20210;-72
2022/10/30 02:11:02;;;;;;;25.55;16.63;;;15.70;99.90;;;;;;5082135;28;20606;-72
2022/10/30 02:13:27;;;;;;;27.80;16.42;;;15.60;99.90;;;;;;5082535;28;20757;-72
2022/10/30 02:15:53;;;;;;;28.70;17.30;;;15.70;99.90;;;;;;5083300;28;20198;-71
2022/10/30 02:18:19;;;;;;;24.63;16.45;;;15.60;99.90;;;;;;5083858;28;20199;-71
2022/10/30 02:20:44;;;;;;;30.65;17.33;;;15.60;99.90;;;;;;5082116;28;20210;-72
2022/10/30 02:23:17;;;;;;;26.58;16.70;;;15.60;99.90;;;;;;5082843;28;20183;-72
2022/10/30 02:25:43;;;;;;;25.75;16.40;;;15.50;99.90;;;;;;5064617;28;20167;-72
2022/10/30 02:28:09;;;;;;;28.13;16.50;;;15.50;99.90;;;;;;5083949;28;20226;-72
2022/10/30 02:30:34;;;;;;;27.02;16.55;;;15.50;99.90;;;;;;5071391;28;20669;-72
2022/10/30 02:33:00;;;;;;;22.65;16.70;;;15.50;99.90;;;;;;5082301;28;20314;-72
2022/10/30 02:35:26;;;;;;;28.33;17.10;;;15.40;99.90;;;;;;5084490;28;20725;-72
2022/10/30 02:37:52;;;;;;;29.33;16.05;;;15.40;99.90;;;;;;5071332;28;20202;-72
2022/10/30 02:40:17;;;;;;;24.80;16.35;;;15.40;99.90;;;;;;5068690;28;20198;-72
2022/10/30 02:42:43;;;;;;;26.27;15.07;;;15.40;99.90;;;;;;5080697;28;20206;-72
2022/10/30 02:45:10;;;;;;;30.42;16.33;;;15.40;99.90;;;;;;5083936;28;20240;-71
2022/10/30 02:47:35;;;;;;;26.65;15.88;;;15.40;99.90;;;;;;5081292;28;20750;-72
2022/10/30 02:50:01;;;;;;;24.83;16.30;;;15.40;99.90;;;;;;5081591;28;20368;-72
2022/10/30 02:52:26;;;;;;;28.13;15.90;;;15.40;99.90;;;;;;5084674;28;20226;-71
2022/10/30 02:54:52;;;;;;;27.67;16.38;;;15.40;99.90;;;;;;5081849;28;20685;-72
2022/10/30 02:57:17;;;;;;;26.35;15.65;;;15.30;99.90;;;;;;5069111;28;20198;-72
2022/10/30 02:59:43;;;;;;;29.48;15.90;;;15.30;99.90;;;;;;5075198;22;20374;-72
2022/10/30 03:02:08;;;;;;;22.05;15.13;;;15.30;99.90;;;;;;5077625;28;20177;-72
2022/10/30 03:04:34;;;;;;;23.40;15.25;;;15.30;99.90;;;;;;5062592;28;20590;-72
2022/10/30 03:06:59;;;;;;;25.95;15.18;;;15.30;99.90;;;;;;5081010;28;20571;-73
2022/10/30 03:09:25;;;;;;;24.92;15.10;;;15.30;99.90;;;;;;5058531;28;20229;-72
2022/10/30 03:11:50;;;;;;;22.08;15.23;;;15.30;99.90;;;;;;5073816;28;20314;-72
2022/10/30 03:14:16;;;;;;;30.00;15.23;;;15.30;99.90;;;;;;5082598;28;20178;-71
2022/10/30 03:16:41;;;;;;;20.15;14.98;;;15.30;99.90;;;;;;5062862;28;20235;-72
2022/10/30 03:19:07;;;;;;;27.60;15.10;;;15.20;99.90;;;;;;5074650;28;20203;-71
2022/10/30 03:21:33;;;;;;;27.00;14.60;;;15.20;99.90;;;;;;5058059;28;20668;-72
2022/10/30 03:23:58;;;;;;;28.65;14.70;;;15.30;99.90;;;;;;5079200;28;20290;-72
2022/10/30 03:26:24;;;;;;;22.90;14.50;;;15.30;99.90;;;;;;5076794;28;20226;-72
2022/10/30 03:28:49;;;;;;;27.73;15.27;;;15.30;99.90;;;;;;5074075;28;20645;-72
2022/10/30 03:31:17;;;;;;;36.13;22.95;;;15.30;99.90;;;;;;5082204;28;20218;-72
2022/10/30 03:33:44;;;;;;;24.33;14.93;;;15.30;99.90;;;;;;5079612;28;20222;-72
2022/10/30 03:36:11;;;;;;;27.25;15.70;;;15.40;99.90;;;;;;5074095;28;20203;-72
2022/10/30 03:38:37;;;;;;;25.00;14.18;;;15.40;99.90;;;;;;5076140;28;20203;-71
2022/10/30 03:41:03;;;;;;;21.55;14.38;;;15.30;99.90;;;;;;5079381;28;20865;-72
2022/10/30 03:43:29;;;;;;;23.27;14.25;;;15.30;99.90;;;;;;5076506;28;20625;-72
2022/10/30 03:45:56;;;;;;;29.17;14.60;;;15.30;99.90;;;;;;5073705;28;20214;-72
2022/10/30 03:48:23;;;;;;;22.67;14.70;;;15.30;99.90;;;;;;5063123;28;20208;-71
2022/10/30 03:50:52;;;;;;;20.48;13.75;;;15.40;99.90;;;;;;5063962;28;20241;-72
2022/10/30 03:53:17;;;;;;;27.77;14.18;;;15.40;99.90;;;;;;5059583;28;20168;-71
2022/10/30 03:55:43;;;;;;;23.20;14.95;;;15.40;99.90;;;;;;5055028;28;20175;-71
2022/10/30 03:58:08;;;;;;;29.40;15.30;;;15.40;99.90;;;;;;5062934;28;20214;-71
2022/10/30 04:00:35;;;;;;;24.80;14.27;;;15.40;99.90;;;;;;5049691;28;20225;-72
2022/10/30 04:03:01;;;;;;;21.83;13.68;;;15.40;99.90;;;;;;5054640;28;20666;-72
2022/10/30 04:05:27;;;;;;;21.38;13.18;;;15.50;99.90;;;;;;5057834;28;20211;-71
2022/10/30 04:07:58;;;;;;;22.15;13.98;;;15.50;99.90;;;;;;5062594;28;20198;-72
2022/10/30 04:10:24;;;;;;;23.35;13.60;;;15.50;99.90;;;;;;5057278;28;20208;-71
2022/10/30 04:12:51;;;;;;;22.90;13.27;;;15.60;99.90;;;;;;5054184;28;20712;-72
2022/10/30 04:15:17;;;;;;;21.05;13.18;;;15.60;99.90;;;;;;5052027;28;20198;-72
2022/10/30 04:17:50;;;;;;;20.27;13.10;;;15.60;99.90;;;;;;5061312;28;20584;-72
2022/10/30 04:20:20;;;;;;;22.38;13.43;;;15.60;99.90;;;;;;5060006;28;20198;-72
2022/10/30 04:22:46;;;;;;;17.63;13.52;;;15.60;99.90;;;;;;5058747;28;20688;-72
2022/10/30 04:25:11;;;;;;;23.75;13.40;;;15.60;99.90;;;;;;5044498;28;20209;-71
2022/10/30 04:27:42;;;;;;;23.45;12.93;;;15.70;99.90;;;;;;5059726;28;20203;-72
2022/10/30 04:30:09;;;;;;;21.95;13.43;;;15.70;99.90;;;;;;5035055;28;20277;-73
2022/10/30 04:32:35;;;;;;;20.52;13.50;;;15.60;99.90;;;;;;5060565;28;20216;-72
2022/10/30 04:35:02;;;;;;;21.45;13.02;;;15.60;99.90;;;;;;5044493;28;20194;-72
2022/10/30 04:37:28;;;;;;;21.30;13.90;;;15.60;99.90;;;;;;5055794;28;20569;-71
2022/10/30 04:39:53;;;;;;;25.33;13.32;;;15.60;99.90;;;;;;5058159;28;20219;-72
2022/10/30 04:42:19;;;;;;;22.02;13.32;;;15.60;99.90;;;;;;5061340;28;20207;-72
2022/10/30 04:44:44;;;;;;;20.30;12.30;;;15.70;99.90;;;;;;5058895;28;20211;-72
2022/10/30 04:47:10;;;;;;;22.00;13.63;;;15.70;99.90;;;;;;5064289;28;20759;-70
2022/10/30 04:49:36;;;;;;;21.13;12.55;;;15.60;99.90;;;;;;5047989;28;20199;-72
2022/10/30 04:52:01;;;;;;;26.58;13.50;;;15.60;99.90;;;;;;5044622;28;20203;-72
2022/10/30 04:54:27;;;;;;;23.63;14.15;;;15.60;99.90;;;;;;5050771;28;20239;-72
2022/10/30 04:56:53;;;;;;;23.25;14.05;;;15.50;99.90;;;;;;5057998;28;20651;-72
2022/10/30 04:59:18;;;;;;;26.05;13.73;;;15.50;99.90;;;;;;5048684;28;20704;-72
2022/10/30 05:01:44;;;;;;;23.05;13.52;;;15.60;99.90;;;;;;5061027;28;20534;-72
2022/10/30 05:04:09;;;;;;;26.85;14.43;;;15.50;99.90;;;;;;5051331;28;20216;-72
2022/10/30 05:06:35;;;;;;;22.48;14.30;;;15.50;99.90;;;;;;5049979;28;20697;-72
2022/10/30 05:09:00;;;;;;;18.50;13.70;;;15.50;99.90;;;;;;5062739;28;20211;-71
2022/10/30 05:11:26;;;;;;;24.10;13.60;;;15.50;99.90;;;;;;5050233;28;20215;-72
2022/10/30 05:13:51;;;;;;;26.90;14.60;;;15.50;99.90;;;;;;5037116;28;20188;-72
2022/10/30 05:16:17;;;;;;;22.73;13.48;;;15.50;99.90;;;;;;5058933;28;20256;-71
2022/10/30 05:18:43;;;;;;;26.08;13.07;;;15.50;99.90;;;;;;5064966;28;20581;-72
2022/10/30 05:21:08;;;;;;;20.80;13.63;;;15.50;99.90;;;;;;5044123;28;20233;-72
2022/10/30 05:23:34;;;;;;;22.67;13.65;;;15.50;99.90;;;;;;5059387;28;20211;-72
2022/10/30 05:26:00;;;;;;;22.17;13.48;;;15.50;99.90;;;;;;5061696;28;20171;-72
2022/10/30 05:28:25;;;;;;;21.60;13.90;;;15.50;99.90;;;;;;5054623;28;20187;-72
2022/10/30 05:30:54;;;;;;;27.58;13.77;;;15.50;99.90;;;;;;5035975;28;20216;-71
2022/10/30 05:33:20;;;;;;;19.35;12.70;;;15.50;99.90;;;;;;5061488;28;20282;-72
2022/10/30 05:35:45;;;;;;;22.15;13.45;;;15.50;99.90;;;;;;5042528;28;20299;-72
2022/10/30 05:38:11;;;;;;;20.05;12.75;;;15.50;99.90;;;;;;5048862;28;20207;-73
2022/10/30 05:40:37;;;;;;;21.60;12.80;;;15.50;99.90;;;;;;5059249;28;20183;-71
2022/10/30 05:43:03;;;;;;;21.70;13.10;;;15.50;99.90;;;;;;5061522;28;20206;-72
2022/10/30 05:45:29;;;;;;;24.58;13.02;;;15.50;99.90;;;;;;5054064;28;20303;-72
2022/10/30 05:47:55;;;;;;;19.58;12.63;;;15.50;99.90;;;;;;5050928;28;20293;-72
2022/10/30 05:50:21;;;;;;;20.98;12.77;;;15.60;99.90;;;;;;5060582;28;20206;-72
2022/10/30 05:52:46;;;;;;;20.45;13.27;;;15.50;99.90;;;;;;5058317;28;20206;-72
2022/10/30 05:55:12;;;;;;;20.42;13.07;;;15.40;99.90;;;;;;5051620;28;20203;-72
2022/10/30 05:57:37;;;;;;;20.27;12.02;;;15.40;99.90;;;;;;5048303;28;20222;-73
2022/10/30 06:00:04;;;;;;;20.55;12.88;;;15.40;99.90;;;;;;5061377;28;20230;-72
2022/10/30 06:02:30;;;;;;;19.10;12.18;;;15.40;99.90;;;;;;5040448;28;20207;-72
2022/10/30 06:04:55;;;;;;;21.13;11.57;;;15.40;99.90;;;;;;5057128;28;20533;-71
2022/10/30 06:07:21;;;;;;;19.65;12.23;;;15.40;99.90;;;;;;5065850;28;20206;-71
2022/10/30 06:09:46;;;;;;;23.52;12.52;;;15.50;99.90;;;;;;5072609;28;20214;-72
2022/10/30 06:12:12;;;;;;;19.70;12.38;;;15.50;99.90;;;;;;5071099;28;20215;-72
2022/10/30 06:14:37;;;;;;;23.90;12.35;;;15.50;99.90;;;;;;5072584;28;20646;-71
2022/10/30 06:17:03;;;;;;;17.63;11.85;;;15.40;99.90;;;;;;5075421;28;20197;-72
2022/10/30 06:19:28;;;;;;;17.50;11.70;;;15.50;99.90;;;;;;5068116;28;20289;-72
2022/10/30 06:21:54;;;;;;;16.60;11.88;;;15.50;99.90;;;;;;5073899;28;20207;-72
2022/10/30 06:24:19;;;;;;;21.05;12.07;;;15.60;99.90;;;;;;5077824;28;20221;-72
2022/10/30 06:26:45;;;;;;;21.23;11.98;;;15.60;99.90;;;;;;5073062;28;20246;-72
2022/10/30 06:29:10;;;;;;;18.73;11.77;;;15.60;99.90;;;;;;5073131;28;20274;-71
2022/10/30 06:31:36;;;;;;;24.83;12.05;;;15.60;99.90;;;;;;5077601;28;20199;-72
2022/10/30 06:34:02;;;;;;;19.35;11.00;;;15.70;99.90;;;;;;5057348;28;20195;-72
2022/10/30 06:36:27;;;;;;;23.08;12.60;;;15.60;99.90;;;;;;5052128;28;20253;-71
2022/10/30 06:38:53;;;;;;;17.83;11.90;;;15.60;99.90;;;;;;5051480;28;20215;-70
2022/10/30 06:41:18;;;;;;;20.67;11.93;;;15.70;99.90;;;;;;5077720;28;20584;-72
2022/10/30 06:43:44;;;;;;;19.45;11.18;;;15.70;99.90;;;;;;5073532;28;20629;-72
2022/10/30 06:46:09;;;;;;;18.95;12.07;;;15.80;99.90;;;;;;5070860;28;20221;-73
2022/10/30 06:48:35;;;;;;;21.05;11.95;;;15.80;99.90;;;;;;5070237;28;20555;-72
2022/10/30 06:51:03;;;;;;;20.17;12.10;;;15.80;99.90;;;;;;5073651;28;20273;-72
2022/10/30 06:53:29;;;;;;;21.38;11.25;;;15.80;99.90;;;;;;5072138;28;20221;-72
2022/10/30 06:56:00;;;;;;;16.63;10.77;;;15.80;99.90;;;;;;5077798;28;20250;-72
2022/10/30 06:58:26;;;;;;;21.77;11.18;;;15.90;99.90;;;;;;5080476;28;20586;-71
2022/10/30 07:00:52;;;;;;;19.73;10.05;;;16.00;99.90;;;;;;5076023;28;20210;-72
2022/10/30 07:03:18;;;;;;;22.50;11.50;;;16.20;99.90;;;;;;5054444;28;20199;-72
2022/10/30 07:05:44;;;;;;;21.30;11.77;;;16.20;99.90;;;;;;5079221;28;20692;-72
2022/10/30 07:08:09;;;;;;;20.67;11.13;;;16.30;99.90;;;;;;5059564;28;20167;-72
2022/10/30 07:10:35;;;;;;;18.00;10.48;;;16.30;99.90;;;;;;5075025;28;20202;-72
2022/10/30 07:13:01;;;;;;;18.65;10.65;;;16.40;99.90;;;;;;5077893;28;20218;-72
2022/10/30 07:15:26;;;;;;;22.10;10.68;;;16.40;99.90;;;;;;5080209;28;20618;-72
2022/10/30 07:17:59;;;;;;;20.90;10.52;;;16.40;99.90;;;;;;5076253;28;20388;-72
2022/10/30 07:20:27;;;;;;;17.55;9.68;;;16.40;99.90;;;;;;5069161;28;20356;-72
2022/10/30 07:22:53;;;;;;;17.65;10.13;;;16.50;99.90;;;;;;5079813;28;20172;-72
2022/10/30 07:25:19;;;;;;;19.00;10.43;;;16.60;99.90;;;;;;5079267;28;20559;-72
2022/10/30 07:27:47;;;;;;;15.70;10.40;;;16.60;99.90;;;;;;5075020;28;20195;-72
2022/10/30 07:30:18;;;;;;;17.80;9.70;;;16.70;99.90;;;;;;5069083;28;20225;-72
2022/10/30 07:32:44;;;;;;;19.63;9.55;;;17.60;99.90;;;;;;5067747;28;20222;-72
2022/10/30 07:35:12;;;;;;;18.05;9.93;;;18.50;99.90;;;;;;5077178;28;20253;-72
2022/10/30 07:37:38;;;;;;;17.42;9.40;;;19.20;99.90;;;;;;5066769;28;20184;-72
2022/10/30 07:40:05;;;;;;;19.48;9.43;;;19.90;99.90;;;;;;5069562;28;20215;-72
2022/10/30 07:42:31;;;;;;;15.98;9.48;;;19.90;99.90;;;;;;5076939;28;20202;-72
2022/10/30 07:44:57;;;;;;;17.83;9.48;;;20.20;99.90;;;;;;5056870;28;20214;-72
2022/10/30 07:47:22;;;;;;;18.23;9.43;;;20.50;99.90;;;;;;5071928;28;20589;-71
2022/10/30 07:49:48;;;;;;;20.73;9.43;;;20.40;99.90;;;;;;5077794;28;20571;-71
2022/10/30 07:52:13;;;;;;;11.90;9.35;;;20.50;99.90;;;;;;5076286;28;20260;-72
2022/10/30 07:54:39;;;;;;;15.98;9.57;;;19.60;99.90;;;;;;5072913;28;20202;-72
2022/10/30 07:57:04;;;;;;;13.98;9.40;;;19.20;99.90;;;;;;5080299;28;20249;-72
2022/10/30 07:59:30;;;;;;;15.05;9.13;;;18.80;99.90;;;;;;5076859;28;20223;-72
2022/10/30 08:01:55;;;;;;;19.33;9.75;;;18.80;99.90;;;;;;5075173;28;20182;-72
2022/10/30 08:04:21;;;;;;;22.40;9.55;;;18.70;99.90;;;;;;5057244;28;20207;-72
2022/10/30 08:06:46;;;;;;;18.20;9.35;;;19.10;99.90;;;;;;5075530;28;20704;-72
2022/10/30 08:09:12;;;;;;;16.80;9.65;;;19.20;99.90;;;;;;5076282;28;20218;-69
2022/10/30 08:11:37;;;;;;;18.33;8.38;;;19.40;99.90;;;;;;5054567;28;20616;-70
2022/10/30 08:14:03;;;;;;;17.23;10.23;;;19.30;99.90;;;;;;5079793;28;20836;-71
2022/10/30 08:16:29;;;;;;;15.90;10.55;;;19.20;99.90;;;;;;5077847;28;20179;-71
2022/10/30 08:18:54;;;;;;;15.32;8.63;;;19.00;99.90;;;;;;5066524;28;20204;-70
2022/10/30 08:21:20;;;;;;;16.58;10.05;;;18.90;99.90;;;;;;5075296;28;20227;-71
2022/10/30 08:23:46;;;;;;;16.38;9.68;;;18.80;99.90;;;;;;5077598;28;20260;-71
2022/10/30 08:26:12;;;;;;;17.00;10.07;;;18.90;99.90;;;;;;5076644;28;20178;-70
2022/10/30 08:28:37;;;;;;;15.40;9.63;;;19.10;99.90;;;;;;5072899;28;20567;-71
2022/10/30 08:31:04;;;;;;;17.45;9.38;;;19.70;99.90;;;;;;5075818;28;20207;-71
2022/10/30 08:33:30;;;;;;;15.27;9.10;;;20.00;99.90;;;;;;5053824;28;20241;-71
2022/10/30 08:35:57;;;;;;;14.52;9.07;;;20.10;99.90;;;;;;5056227;28;20207;-71
2022/10/30 08:38:24;;;;;;;19.13;10.23;;;19.90;99.90;;;;;;5071179;28;20258;-71
2022/10/30 08:40:50;;;;;;;33.65;18.70;;;19.60;99.90;;;;;;5058826;28;20167;-71
2022/10/30 08:43:16;;;;;;;19.40;11.45;;;19.60;99.90;;;;;;5078048;28;20194;-71
2022/10/30 08:45:41;;;;;;;16.73;10.50;;;19.50;99.90;;;;;;5074113;28;20199;-71
2022/10/30 08:48:10;;;;;;;15.25;8.68;;;19.60;99.90;;;;;;5075902;28;20210;-71
2022/10/30 08:50:36;;;;;;;13.75;7.78;;;19.60;99.90;;;;;;5075909;28;20210;-71
2022/10/30 08:53:03;;;;;;;18.92;9.82;;;20.00;99.90;;;;;;5072251;28;20202;-71
2022/10/30 08:55:30;;;;;;;21.20;10.77;;;20.20;99.90;;;;;;5075241;28;20183;-70
2022/10/30 08:57:55;;;;;;;23.80;11.82;;;20.50;99.90;;;;;;5077238;28;20195;-71
2022/10/30 09:00:21;;;;;;;13.98;9.30;;;21.00;99.90;;;;;;5068210;28;20214;-71
2022/10/30 09:02:47;;;;;;;18.33;8.63;;;21.30;99.90;;;;;;5072232;28;20233;-70
2022/10/30 09:05:12;;;;;;;20.05;9.63;;;21.60;99.90;;;;;;5070738;28;20198;-70
2022/10/30 09:07:38;;;;;;;15.27;8.52;;;21.80;99.90;;;;;;5074618;28;20175;-71
2022/10/30 09:10:04;;;;;;;15.00;7.88;;;21.50;99.90;;;;;;5073890;28;20289;-70
2022/10/30 09:12:29;;;;;;;12.98;8.02;;;21.00;99.90;;;;;;5074438;28;20297;-70
2022/10/30 09:14:55;;;;;;;18.33;8.70;;;20.70;99.90;;;;;;5076772;28;20213;-70
2022/10/30 09:17:20;;;;;;;15.25;8.25;;;20.40;99.90;;;;;;5075677;28;20202;-70
2022/10/30 09:19:46;;;;;;;12.77;7.38;;;20.20;99.90;;;;;;5072051;28;20270;-70
2022/10/30 09:22:11;;;;;;;15.20;7.57;;;20.20;99.90;;;;;;5075993;28;20213;-70
2022/10/30 09:24:38;;;;;;;13.35;7.70;;;20.40;99.90;;;;;;5056991;28;20198;-70
2022/10/30 09:27:04;;;;;;;15.50;7.50;;;20.60;99.90;;;;;;5049008;28;20200;-70
2022/10/30 09:29:30;;;;;;;14.40;7.75;;;21.10;99.90;;;;;;5070357;28;20226;-70
2022/10/30 09:31:56;;;;;;;15.50;7.05;;;21.40;99.90;;;;;;5074675;28;20698;-70
2022/10/30 09:34:22;;;;;;;10.48;6.78;;;21.70;99.90;;;;;;5076087;28;20259;-70
2022/10/30 09:36:48;;;;;;;17.63;7.40;;;21.80;99.90;;;;;;5071625;28;20285;-70
2022/10/30 09:39:14;;;;;;;11.98;6.40;;;21.90;99.90;;;;;;5077173;28;20674;-71
2022/10/30 09:41:48;;;;;;;12.25;7.07;;;22.10;99.90;;;;;;5052031;28;20306;-70
2022/10/30 09:44:42;;;;;;;15.98;7.00;;;22.30;99.90;;;;;;5074421;28;20173;-70
2022/10/30 09:47:45;;;;;;;15.80;7.18;;;22.30;99.90;;;;;;5045069;28;20272;-69
2022/10/30 09:50:17;;;;;;;11.75;6.07;;;22.60;99.90;;;;;;5076643;28;20205;-69
2022/10/30 09:53:22;;;;;;;16.35;6.35;;;22.40;99.90;;;;;;5055198;28;20199;-70
2022/10/30 09:56:03;;;;;;;18.17;7.28;;;22.50;99.90;;;;;;5055240;28;20203;-70
2022/10/30 09:58:43;;;;;;;13.52;6.55;;;22.50;99.90;;;;;;5072649;28;20293;-70
2022/10/30 10:01:26;;;;;;;15.05;6.53;;;22.80;99.90;;;;;;5049785;28;20269;-71
2022/10/30 10:04:03;;;;;;;15.15;6.70;;;22.90;99.90;;;;;;5052747;28;20674;-71
2022/10/30 10:06:30;;;;;;;11.60;5.57;;;23.00;99.90;;;;;;5070913;28;20276;-69
2022/10/30 10:09:01;;;;;;;9.00;5.30;;;23.00;99.90;;;;;;5075489;28;20575;-71
2022/10/30 10:11:34;;;;;;;11.95;6.20;;;23.10;99.90;;;;;;5066419;28;20246;-72
2022/10/30 10:14:25;;;;;;;17.67;6.15;;;23.10;99.90;;;;;;5065774;28;20250;-71
2022/10/30 10:16:55;;;;;;;11.60;5.70;;;23.10;99.90;;;;;;5072785;28;20174;-71
2022/10/30 10:19:29;;;;;;;14.68;6.45;;;23.10;99.90;;;;;;5070532;28;20210;-71
2022/10/30 10:21:58;;;;;;;9.63;6.05;;;23.00;99.90;;;;;;5061864;28;20252;-71
2022/10/30 10:24:32;;;;;;;11.02;6.10;;;23.00;99.90;;;;;;5077541;28;20210;-72
2022/10/30 10:27:16;;;;;;;11.02;5.97;;;22.90;99.90;;;;;;5050120;28;20210;-71
2022/10/30 10:30:05;;;;;;;15.15;5.80;;;23.00;99.90;;;;;;5072505;28;20222;-71
2022/10/30 10:32:50;;;;;;;14.88;5.80;;;22.80;99.90;;;;;;5077803;28;20221;-71
2022/10/30 10:35:41;;;;;;;9.45;5.47;;;22.80;99.90;;;;;;5078627;28;20215;-72
2022/10/30 10:38:22;;;;;;;15.82;6.13;;;22.70;99.90;;;;;;5074535;28;20203;-72
2022/10/30 10:40:56;;;;;;;16.40;7.07;;;22.80;99.90;;;;;;5076859;28;20167;-71
2022/10/30 10:43:57;;;;;;;14.32;6.10;;;22.70;99.90;;;;;;5071059;28;20236;-72
2022/10/30 10:46:28;;;;;;;11.25;7.13;;;22.70;99.90;;;;;;5074503;28;20316;-71
2022/10/30 10:49:09;;;;;;;22.05;13.65;;;22.80;99.90;;;;;;5072724;28;20207;-71
2022/10/30 10:51:58;;;;;;;15.48;8.10;;;22.90;99.90;;;;;;5071926;28;20697;-71
2022/10/30 10:54:29;;;;;;;13.35;5.63;;;23.00;99.90;;;;;;5065429;28;20218;-72
2022/10/30 10:56:58;;;;;;;12.32;5.60;;;22.90;99.90;;;;;;5072792;28;20762;-71
2022/10/30 10:59:35;;;;;;;11.00;5.53;;;22.90;99.90;;;;;;5072868;28;20222;-71
2022/10/30 11:02:27;;;;;;;12.45;6.00;;;22.80;99.90;;;;;;5074259;28;20183;-72
2022/10/30 11:04:59;;;;;;;14.95;8.20;;;22.70;99.90;;;;;;5064823;28;20171;-71
2022/10/30 11:07:31;;;;;;;15.65;6.80;;;22.80;99.90;;;;;;5074121;28;20213;-71
2022/10/30 11:09:57;;;;;;;13.35;6.68;;;22.80;99.90;;;;;;5076526;28;20210;-72
2022/10/30 11:12:30;;;;;;;10.52;6.03;;;22.70;99.90;;;;;;5064093;28;20206;-71
2022/10/30 11:14:58;;;;;;;12.85;5.90;;;22.80;99.90;;;;;;5077142;28;20681;-71
2022/10/30 11:17:37;;;;;;;17.20;7.18;;;23.00;99.90;;;;;;5078121;28;20210;-71
2022/10/30 11:20:16;;;;;;;12.50;6.07;;;23.00;99.90;;;;;;5072382;28;20248;-71
2022/10/30 11:22:48;;;;;;;11.32;4.78;;;23.00;99.90;;;;;;5080427;28;20174;-71
2022/10/30 11:25:22;;;;;;;12.15;7.15;;;22.70;99.90;;;;;;5079198;28;20206;-72
2022/10/30 11:27:53;;;;;;;15.70;7.15;;;22.70;99.90;;;;;;5075117;28;20210;-71
2022/10/30 11:30:22;;;;;;;20.88;8.75;;;22.60;99.90;;;;;;5075568;28;20239;-71
2022/10/30 11:32:47;;;;;;;11.52;5.30;;;22.70;99.90;;;;;;5078328;28;20219;-71
2022/10/30 11:35:16;;;;;;;15.73;8.85;;;22.60;99.90;;;;;;5071466;28;20637;-71
2022/10/30 11:37:44;;;;;;;19.27;8.50;;;22.60;99.90;;;;;;5073519;28;20483;-71
2022/10/30 11:40:12;;;;;;;13.55;6.78;;;22.60;99.90;;;;;;5072847;28;20203;-72
2022/10/30 11:43:00;;;;;;;17.10;9.32;;;22.70;99.90;;;;;;5054164;28;20229;-71
2022/10/30 11:45:29;;;;;;;14.60;5.65;;;22.80;99.90;;;;;;5072756;28;20704;-72
2022/10/30 11:47:57;;;;;;;13.77;5.38;;;22.80;99.90;;;;;;5070875;28;20207;-71
2022/10/30 11:50:31;;;;;;;15.65;5.20;;;22.80;99.90;;;;;;5078770;28;20206;-71
2022/10/30 11:53:10;;;;;;;9.80;4.45;;;22.80;99.90;;;;;;5076249;28;20590;-71
2022/10/30 11:55:40;;;;;;;13.45;5.47;;;22.80;99.90;;;;;;5074911;28;20197;-71
2022/10/30 11:58:10;;;;;;;11.43;5.25;;;22.60;99.90;;;;;;5080553;28;20248;-71
2022/10/30 12:00:39;;;;;;;13.27;5.50;;;22.70;99.90;;;;;;5071616;28;20570;-71
2022/10/30 12:03:29;;;;;;;12.00;4.85;;;22.70;99.90;;;;;;5073820;28;20608;-71
2022/10/30 12:06:19;;;;;;;12.43;5.60;;;22.70;99.90;;;;;;5076416;28;20696;-70
2022/10/30 12:09:03;;;;;;;14.10;5.55;;;22.70;99.90;;;;;;5077816;28;20253;-72
2022/10/30 12:11:34;;;;;;;13.20;5.80;;;22.70;99.90;;;;;;5064356;28;20215;-71
2022/10/30 12:14:00;;;;;;;16.55;5.43;;;22.80;99.90;;;;;;5076158;28;20201;-71
2022/10/30 12:16:27;;;;;;;11.40;5.00;;;22.90;99.90;;;;;;5078878;28;20167;-71
2022/10/30 12:18:59;;;;;;;10.88;5.97;;;22.80;99.90;;;;;;5074303;28;20756;-71
2022/10/30 12:21:27;;;;;;;18.35;5.43;;;22.70;99.90;;;;;;5072082;28;20335;-71
2022/10/30 12:24:00;;;;;;;15.18;5.28;;;22.70;99.90;;;;;;5077881;28;20211;-71
2022/10/30 12:26:27;;;;;;;10.68;5.45;;;22.70;99.90;;;;;;5076514;28;20222;-70
2022/10/30 12:29:00;;;;;;;15.98;5.30;;;22.70;99.90;;;;;;5073336;28;20653;-70
2022/10/30 12:31:33;;;;;;;11.35;5.13;;;22.70;99.90;;;;;;5075238;28;20703;-70
2022/10/30 12:34:20;;;;;;;13.45;4.65;;;22.70;99.90;;;;;;5077259;28;20203;-71
2022/10/30 12:36:54;;;;;;;17.83;6.38;;;22.70;99.90;;;;;;5053405;28;20203;-71
2022/10/30 12:39:45;;;;;;;10.45;5.95;;;22.60;99.90;;;;;;5078492;28;20288;-71
2022/10/30 12:42:15;;;;;;;11.73;5.60;;;22.50;99.90;;;;;;5047181;28;20221;-70